Franklin, Iowa
Current Conditions -  °F | °C
As of 9:15 PM on Wednesday 24 Dec 2014 (Local Time) from KFSW Reporting Station
Overcast Overcast  
Wind Chill: 30°   Ceiling: 1900
Heat Index: 37°   Visibility: 10mi
Dew Point: 32°   Wind: 10mph
Humidity: 81%   Direction: 280°W
Pressure: 29.76"   Gusts: NA
Location:  40.6822°N, 91.6042°W
Report Text: KFSW 250315Z AUTO 28009KT 10SM OVC019 03/00 A2976 RMK AO2
Loading
Personal Weather Stations






























Interactive Weather Map New forecast layout! Learn more

10-Day Weather Forecast

Advertisements
Track Severe Weather on mobile